Terminal Aerodrome Forecast
Issued by NWS

Home | Current Version | Previous Version | Graphics & Text | Print | Product List | Glossary On
Versions: 1 2 3 4 5 6 7 8 9 10 11 12 13 14 15 16 17 18 19 20 21 22
000
FTUS43 KTOP 281740
TAFMHK
TAF
KMHK 281740Z 2818/2918 08011KT P6SM OVC025
     FM290300 07013KT P6SM VCSH OVC015
     FM290500 06013KT 4SM -SHRA OVC008
     FM290700 06014G22KT 3SM -SHRA OVC008
     FM291000 05016G27KT 2SM RA OVC007
     FM291500 06014G26KT 3SM -RA OVC008=

USA.gov is the U.S. government's official web portal to all federal, state and local government web resources and services.